KRPD

Rice Lake Regional - Carl's Field Airport

Rice Lake, Wisconsin, USA
METAR KRPD 182015Z AUTO 01008KT 10SM SCT070 M13/M18 A3026 RMK AO2 T11281184
Observed Flight Rules
Jan-18 @ 20:15 UTC (22 minutes ago) Visual Flight Rules
Wind Visibility Clouds
10° at 8 knots 10 miles
  • Scattered at 7,000' AGL
Temperatures Readings
Current -13°C / 9°F
Dewpoint -18°C / -0°F
Humidity 66%
Altimeter 30.26" Hg
Pressure 1024.72 hPa
Elevation 338
METAR KRPD 182015Z AUTO 01008KT 10SM SCT070 M13/M18 A3026 RMK AO2 T11281184
Observed Flight Rules
Jan-18 @ 20:15 UTC
(22 minutes ago)
VFR
Wind Visibility
10° at 8 knots 10 miles
Clouds
  • Scattered at 7,000' AGL
Temperature Dewpoint
-13°C / 9°F -18°C / -0°F
Humidity Altimeter Pressure
66% 30.26" Hg 1024.72 hPa